createdAt,value
2022-08-30T00:00:46.431Z,2.63
2022-08-30T00:03:37.144Z,2.50
2022-08-30T00:06:25.739Z,2.77
2022-08-30T00:09:12.842Z,3.27
2022-08-30T00:11:59.906Z,1.50
2022-08-30T00:14:48.182Z,1.80
2022-08-30T00:17:35.290Z,2.73
2022-08-30T00:20:25.877Z,2.30
2022-08-30T00:23:13.684Z,2.53
2022-08-30T00:26:02.101Z,2.33
2022-08-30T00:28:49.558Z,3.37
2022-08-30T00:31:36.624Z,3.67
2022-08-30T00:34:23.582Z,2.33
2022-08-30T00:37:10.738Z,2.00
2022-08-30T00:39:57.760Z,3.63
2022-08-30T00:42:44.860Z,1.70
2022-08-30T00:45:38.991Z,1.50
2022-08-30T00:48:26.032Z,3.93
2022-08-30T00:51:14.490Z,3.97
2022-08-30T00:54:02.405Z,2.17
2022-08-30T00:56:50.116Z,2.37
2022-08-30T00:59:37.401Z,2.40
2022-08-30T01:02:26.943Z,3.40
2022-08-30T01:05:16.116Z,3.63
2022-08-30T01:08:03.624Z,3.93
2022-08-30T01:10:53.513Z,2.13
2022-08-30T01:13:41.248Z,3.63
2022-08-30T01:16:34.460Z,3.23
2022-08-30T01:19:47.494Z,1.93
2022-08-30T01:23:10.086Z,1.70
2022-08-30T01:25:58.144Z,2.83
2022-08-30T01:28:48.740Z,5.63
2022-08-30T01:31:37.201Z,2.07
2022-08-30T01:34:25.650Z,2.57
2022-08-30T01:37:12.702Z,4.90
2022-08-30T01:40:00.211Z,4.10
2022-08-30T01:42:47.418Z,4.43
2022-08-30T01:45:34.500Z,3.60
2022-08-30T01:48:22.222Z,4.70
2022-08-30T01:51:18.523Z,3.03
2022-08-30T01:54:06.246Z,4.50
2022-08-30T01:56:53.310Z,3.10
2022-08-30T01:59:43.476Z,4.73
2022-08-30T02:02:30.537Z,4.03
2022-08-30T02:05:17.723Z,3.97
2022-08-30T02:08:05.142Z,2.87
2022-08-30T02:10:52.198Z,3.70
2022-08-30T02:13:40.335Z,4.53
2022-08-30T02:16:27.739Z,4.43
2022-08-30T02:19:15.178Z,4.07
2022-08-30T02:22:02.191Z,2.40
2022-08-30T02:24:49.226Z,6.53
2022-08-30T02:27:36.902Z,3.50
2022-08-30T02:30:24.073Z,3.87
2022-08-30T02:33:11.418Z,5.30
2022-08-30T02:35:58.566Z,3.67
2022-08-30T02:38:46.340Z,3.13
2022-08-30T02:41:33.374Z,3.73
2022-08-30T02:44:20.482Z,2.80
2022-08-30T02:47:07.601Z,4.17
2022-08-30T02:49:54.574Z,5.43
2022-08-30T02:52:42.182Z,4.03
2022-08-30T02:55:32.169Z,2.90
2022-08-30T02:58:19.361Z,3.63
2022-08-30T03:01:06.515Z,4.57
2022-08-30T03:03:53.792Z,4.33
2022-08-30T03:06:41.118Z,4.10
2022-08-30T03:09:28.222Z,4.50
2022-08-30T03:12:15.526Z,5.30
2022-08-30T03:15:02.859Z,3.80
2022-08-30T03:17:49.958Z,5.27
2022-08-30T03:20:36.979Z,4.23
2022-08-30T03:23:24.435Z,5.07
2022-08-30T03:26:14.782Z,4.93
2022-08-30T03:29:02.276Z,4.93
2022-08-30T03:31:53.532Z,3.50
2022-08-30T03:34:41.133Z,4.37
2022-08-30T03:37:28.093Z,4.13
2022-08-30T03:40:17.308Z,3.30
2022-08-30T03:43:05.965Z,8.07
2022-08-30T03:45:53.255Z,4.27
2022-08-30T03:48:40.681Z,3.27
2022-08-30T03:51:27.757Z,3.70
2022-08-30T03:54:15.253Z,4.83
2022-08-30T03:57:02.417Z,3.73
2022-08-30T03:59:49.477Z,3.47
2022-08-30T04:02:36.559Z,3.63
2022-08-30T04:05:23.594Z,4.17
2022-08-30T04:08:10.770Z,5.07
2022-08-30T04:10:57.896Z,4.30
2022-08-30T04:13:44.999Z,6.40
2022-08-30T04:16:32.386Z,3.53
2022-08-30T04:19:19.454Z,5.43
2022-08-30T04:22:06.435Z,5.90
2022-08-30T04:24:54.067Z,4.87
2022-08-30T04:27:41.045Z,4.43
2022-08-30T04:30:28.377Z,4.00
2022-08-30T04:33:16.989Z,4.13
2022-08-30T04:36:06.698Z,6.07
2022-08-30T04:38:53.893Z,4.57
2022-08-30T04:41:42.769Z,7.07
2022-08-30T04:44:29.956Z,5.17
2022-08-30T04:47:18.354Z,6.13
2022-08-30T04:50:11.831Z,5.33
2022-08-30T04:52:58.789Z,7.83
2022-08-30T04:55:45.827Z,4.47
2022-08-30T04:58:33.517Z,4.87
2022-08-30T05:01:24.047Z,5.27
2022-08-30T05:04:11.799Z,7.67
2022-08-30T05:06:58.793Z,5.57
2022-08-30T05:09:45.770Z,5.10
2022-08-30T05:12:32.791Z,6.37
2022-08-30T05:15:21.782Z,6.57
2022-08-30T05:18:13.371Z,5.70
2022-08-30T05:21:11.138Z,5.83
2022-08-30T05:24:02.870Z,6.10
2022-08-30T05:26:50.072Z,6.33
2022-08-30T05:29:37.037Z,6.63
2022-08-30T05:32:24.617Z,6.97
2022-08-30T05:35:13.507Z,6.40
2022-08-30T05:38:00.957Z,6.57
2022-08-30T05:40:47.938Z,7.07
2022-08-30T05:43:35.277Z,6.83
2022-08-30T05:46:22.847Z,8.30
2022-08-30T05:49:10.425Z,7.07
2022-08-30T05:51:57.420Z,5.83
2022-08-30T05:54:45.429Z,6.13
2022-08-30T05:57:36.547Z,6.80
2022-08-30T06:00:24.023Z,7.93
2022-08-30T06:03:12.911Z,6.47
2022-08-30T06:06:01.075Z,7.63
2022-08-30T06:08:49.009Z,7.13
2022-08-30T06:11:36.737Z,6.27
2022-08-30T06:14:24.322Z,5.27
2022-08-30T06:17:11.342Z,7.47
2022-08-30T06:19:58.289Z,5.03
2022-08-30T06:22:45.286Z,6.37
2022-08-30T06:25:42.063Z,5.33
2022-08-30T06:28:29.395Z,6.67
2022-08-30T06:31:18.433Z,5.93
2022-08-30T06:34:05.837Z,6.17
2022-08-30T06:36:52.806Z,5.30
2022-08-30T06:39:39.820Z,4.50
2022-08-30T06:42:32.199Z,6.97
2022-08-30T06:45:20.609Z,5.77
2022-08-30T06:48:07.632Z,5.27
2022-08-30T06:50:55.061Z,5.17
2022-08-30T06:53:42.438Z,7.17
2022-08-30T06:56:31.130Z,5.10
2022-08-30T06:59:18.299Z,6.37
2022-08-30T07:02:06.385Z,4.57
2022-08-30T07:04:53.663Z,5.07
2022-08-30T07:07:40.589Z,5.60
2022-08-30T07:10:27.777Z,5.97
2022-08-30T07:13:15.029Z,4.70
2022-08-30T07:16:02.187Z,4.77
2022-08-30T07:18:54.663Z,4.13
2022-08-30T07:21:43.971Z,5.27
2022-08-30T07:24:31.069Z,4.77
2022-08-30T07:27:18.117Z,3.10
2022-08-30T07:30:07.421Z,4.10
2022-08-30T07:32:56.683Z,3.73
2022-08-30T07:35:44.258Z,4.17
2022-08-30T07:38:32.078Z,4.60
2022-08-30T07:41:28.258Z,4.67
2022-08-30T07:44:15.328Z,4.27
2022-08-30T07:47:02.341Z,4.00
2022-08-30T07:49:49.350Z,5.00
2022-08-30T07:55:23.507Z,3.67
2022-08-30T07:58:10.603Z,2.90
2022-08-30T08:00:59.616Z,2.67
2022-08-30T08:03:46.909Z,2.47
2022-08-30T08:06:39.130Z,3.57
2022-08-30T08:09:26.149Z,2.83
2022-08-30T08:12:13.561Z,3.17
2022-08-30T08:15:02.101Z,2.40
2022-08-30T08:17:53.852Z,2.43
2022-08-30T08:20:41.330Z,2.30
2022-08-30T08:23:28.969Z,3.27
2022-08-30T08:26:16.610Z,3.23
2022-08-30T08:29:04.957Z,2.93
2022-08-30T08:31:51.879Z,3.00
2022-08-30T08:34:38.938Z,3.20
2022-08-30T08:37:26.770Z,2.77
2022-08-30T08:40:19.456Z,2.77
2022-08-30T08:43:13.170Z,4.07
2022-08-30T08:46:28.408Z,3.13
2022-08-30T08:49:15.611Z,2.97
2022-08-30T08:52:24.060Z,4.77
2022-08-30T08:55:14.245Z,3.00
2022-08-30T08:58:02.005Z,4.50
2022-08-30T09:00:49.166Z,3.47
2022-08-30T09:03:36.742Z,3.43
2022-08-30T09:06:23.755Z,3.87
2022-08-30T09:09:11.286Z,3.33
2022-08-30T09:11:58.459Z,3.73
2022-08-30T09:14:51.465Z,4.20
2022-08-30T09:18:16.919Z,3.47
2022-08-30T09:21:07.730Z,4.27
2022-08-30T09:24:04.619Z,3.70
2022-08-30T09:26:51.803Z,3.10
2022-08-30T09:29:57.490Z,4.00
2022-08-30T09:32:59.953Z,4.17
2022-08-30T09:35:49.826Z,2.37
2022-08-30T09:38:37.255Z,3.47
2022-08-30T09:41:44.970Z,2.70
2022-08-30T09:44:37.825Z,3.37
2022-08-30T09:47:31.583Z,3.53
2022-08-30T09:50:24.416Z,2.87
2022-08-30T09:53:23.868Z,4.30
2022-08-30T09:56:23.476Z,4.07
2022-08-30T09:59:23.053Z,3.10
2022-08-30T10:02:21.951Z,4.83
2022-08-30T10:05:13.210Z,4.57
2022-08-30T10:08:12.913Z,4.37
2022-08-30T10:11:07.793Z,4.40
2022-08-30T10:14:05.311Z,3.37
2022-08-30T10:17:19.904Z,3.97
2022-08-30T10:20:36.785Z,3.97
2022-08-30T10:23:32.716Z,5.27
2022-08-30T10:26:42.845Z,3.70
2022-08-30T10:29:39.497Z,4.03
2022-08-30T10:32:37.945Z,6.43
2022-08-30T10:35:34.067Z,4.07
2022-08-30T10:38:37.873Z,5.77
2022-08-30T10:41:24.818Z,3.70
2022-08-30T10:44:26.677Z,4.00
2022-08-30T10:47:36.390Z,3.20
2022-08-30T10:50:39.040Z,3.40
2022-08-30T10:53:40.502Z,4.67
2022-08-30T10:56:29.815Z,5.23
2022-08-30T10:59:18.836Z,3.70
2022-08-30T11:02:21.215Z,2.20
2022-08-30T11:05:17.283Z,3.37
2022-08-30T11:08:35.594Z,4.03
2022-08-30T11:11:41.391Z,2.50
2022-08-30T11:14:30.275Z,2.40
2022-08-30T11:17:29.568Z,5.23
2022-08-30T11:20:46.070Z,3.73
2022-08-30T11:23:36.431Z,3.47
2022-08-30T11:26:45.486Z,3.37
2022-08-30T11:29:35.189Z,3.57
2022-08-30T11:36:00.682Z,3.03
2022-08-30T11:38:48.840Z,2.10
2022-08-30T11:41:48.621Z,2.97
2022-08-30T11:44:37.113Z,3.60
2022-08-30T11:47:45.735Z,3.60
2022-08-30T11:53:57.627Z,4.40
2022-08-30T11:57:01.026Z,5.80
2022-08-30T12:00:21.418Z,3.83
2022-08-30T12:03:15.176Z,4.67
2022-08-30T12:06:19.246Z,3.03
2022-08-30T12:09:08.360Z,3.53
2022-08-30T12:12:07.669Z,3.23
2022-08-30T12:14:57.808Z,2.87
2022-08-30T12:18:17.164Z,2.50
2022-08-30T12:21:24.988Z,2.47
2022-08-30T12:24:28.649Z,3.10
2022-08-30T12:27:32.457Z,2.60
2022-08-30T12:30:29.771Z,3.27
2022-08-30T12:33:37.558Z,2.17
2022-08-30T12:36:32.754Z,1.60
2022-08-30T12:39:26.006Z,3.07
2022-08-30T12:42:22.459Z,2.38
2022-08-30T12:45:20.346Z,3.60
2022-08-30T12:51:51.292Z,1.57
2022-08-30T12:54:41.149Z,2.37
2022-08-30T12:58:00.709Z,2.17
2022-08-30T13:00:49.512Z,2.38
2022-08-30T13:03:38.297Z,1.38
2022-08-30T13:06:58.737Z,1.27
2022-08-30T13:09:49.058Z,1.48
2022-08-30T13:12:41.597Z,1.35
2022-08-30T13:16:23.088Z,1.50
2022-08-30T13:23:19.606Z,1.20
2022-08-30T13:26:11.442Z,1.48
2022-08-30T13:29:01.735Z,1.60
2022-08-30T13:31:51.206Z,1.27
2022-08-30T13:34:39.152Z,1.33
2022-08-30T13:40:34.609Z,1.40
2022-08-30T13:43:26.183Z,2.28
2022-08-30T13:46:16.055Z,1.35
2022-08-30T13:49:43.158Z,1.52
2022-08-30T13:52:21.954Z,1.63
2022-08-30T13:55:10.115Z,1.40
2022-08-30T13:57:57.817Z,4.47
2022-08-30T14:00:48.495Z,5.47
2022-08-30T14:03:35.722Z,1.45
2022-08-30T14:06:33.103Z,3.35
2022-08-30T14:09:21.526Z,1.63
2022-08-30T14:12:14.092Z,2.05
2022-08-30T14:15:10.347Z,2.17
2022-08-30T14:17:57.468Z,2.70
2022-08-30T14:20:44.679Z,2.45
2022-08-30T14:23:32.096Z,1.60
2022-08-30T14:26:26.849Z,2.58
2022-08-30T14:29:26.292Z,2.75
2022-08-30T14:32:17.615Z,1.42
2022-08-30T14:35:07.227Z,1.60
2022-08-30T14:37:55.048Z,1.92
2022-08-30T14:40:42.324Z,1.33
2022-08-30T14:43:29.865Z,2.80
2022-08-30T14:46:17.129Z,1.60
2022-08-30T14:49:06.922Z,2.25
2022-08-30T14:51:57.354Z,5.28
2022-08-30T14:54:59.343Z,1.90
2022-08-30T14:57:48.755Z,2.10
2022-08-30T15:00:35.750Z,3.20
2022-08-30T15:03:23.459Z,3.10
2022-08-30T15:06:26.579Z,1.60
2022-08-30T15:09:18.726Z,3.28
2022-08-30T15:12:10.839Z,2.60
2022-08-30T15:14:57.873Z,2.15
2022-08-30T15:17:44.997Z,1.83
2022-08-30T15:20:32.842Z,2.58
2022-08-30T15:23:22.970Z,3.25
2022-08-30T15:26:12.034Z,2.08
2022-08-30T15:28:59.315Z,3.22
2022-08-30T15:31:49.679Z,2.00
2022-08-30T15:34:37.009Z,2.15
2022-08-30T15:37:24.131Z,3.85
2022-08-30T15:40:13.591Z,3.97
2022-08-30T15:43:03.353Z,4.05
2022-08-30T15:45:50.369Z,2.22
2022-08-30T15:48:47.927Z,2.70
2022-08-30T15:51:41.879Z,2.15
2022-08-30T15:54:33.053Z,3.10
2022-08-30T15:57:20.106Z,2.92
2022-08-30T16:00:11.539Z,2.75
2022-08-30T16:02:58.790Z,2.63
2022-08-30T16:05:45.853Z,4.43
2022-08-30T16:08:46.350Z,2.85
2022-08-30T16:11:33.538Z,1.92
2022-08-30T16:14:21.706Z,3.05
2022-08-30T16:17:09.033Z,2.00
2022-08-30T16:19:58.708Z,2.72
2022-08-30T16:22:47.136Z,2.45
2022-08-30T16:25:40.882Z,3.38
2022-08-30T16:28:29.362Z,3.47
2022-08-30T16:31:17.861Z,3.85
2022-08-30T16:34:06.918Z,2.28
2022-08-30T16:36:54.946Z,4.10
2022-08-30T16:39:46.547Z,3.47
2022-08-30T16:42:34.514Z,2.92
2022-08-30T16:45:21.694Z,2.30
2022-08-30T16:48:13.067Z,2.17
2022-08-30T16:51:00.953Z,2.83
2022-08-30T16:53:48.213Z,1.17
2022-08-30T16:56:36.311Z,1.80
2022-08-30T16:59:24.293Z,2.63
2022-08-30T17:02:11.349Z,2.17
2022-08-30T17:04:58.681Z,1.87
2022-08-30T17:07:45.684Z,2.37
2022-08-30T17:10:33.370Z,2.53
2022-08-30T17:13:21.958Z,2.07
2022-08-30T17:16:11.790Z,3.57
2022-08-30T17:19:01.187Z,1.73
2022-08-30T17:21:48.276Z,1.53
2022-08-30T17:24:35.607Z,2.30
2022-08-30T17:27:22.664Z,1.80
2022-08-30T17:30:10.487Z,1.43
2022-08-30T17:32:57.505Z,2.10
2022-08-30T17:35:44.886Z,2.60
2022-08-30T17:38:32.262Z,1.67
2022-08-30T17:41:19.299Z,1.63
2022-08-30T17:44:07.567Z,2.30
2022-08-30T17:46:56.402Z,2.33
2022-08-30T17:49:43.499Z,2.57
2022-08-30T17:52:30.516Z,2.03
2022-08-30T17:55:18.216Z,1.53
2022-08-30T17:58:05.215Z,4.10
2022-08-30T18:00:55.333Z,1.60
2022-08-30T18:03:45.411Z,4.63
2022-08-30T18:06:33.348Z,1.97
2022-08-30T18:09:21.846Z,3.00
2022-08-30T18:12:10.667Z,1.83
2022-08-30T18:14:57.651Z,2.53
2022-08-30T18:17:47.678Z,1.60
2022-08-30T18:20:35.087Z,1.60
2022-08-30T18:23:24.234Z,1.93
2022-08-30T18:26:13.734Z,3.07
2022-08-30T18:29:05.023Z,1.73
2022-08-30T18:31:52.181Z,3.00
2022-08-30T18:34:42.463Z,2.60
2022-08-30T18:37:29.571Z,2.07
2022-08-30T18:40:18.623Z,2.00
2022-08-30T18:43:09.815Z,2.00
2022-08-30T18:45:57.430Z,2.80
2022-08-30T18:48:45.047Z,1.83
2022-08-30T18:51:32.094Z,2.30
2022-08-30T18:54:19.526Z,2.33
2022-08-30T18:57:06.622Z,1.97
2022-08-30T18:59:53.604Z,2.00
2022-08-30T19:02:41.432Z,2.63
2022-08-30T19:05:30.693Z,2.03
2022-08-30T19:08:18.493Z,1.60
2022-08-30T19:11:07.443Z,1.93
2022-08-30T19:13:54.621Z,2.30
2022-08-30T19:16:42.767Z,2.40
2022-08-30T19:19:29.819Z,1.77
2022-08-30T19:22:20.737Z,2.87
2022-08-30T19:25:09.419Z,1.83
2022-08-30T19:27:56.425Z,1.00
2022-08-30T19:30:43.722Z,1.30
2022-08-30T19:33:30.832Z,2.27
2022-08-30T19:36:17.830Z,1.83
2022-08-30T19:39:04.971Z,2.20
2022-08-30T19:41:52.230Z,2.03
2022-08-30T19:44:39.471Z,2.73
2022-08-30T19:47:26.605Z,5.13
2022-08-30T19:50:14.744Z,2.33
2022-08-30T19:53:01.851Z,1.40
2022-08-30T19:55:50.812Z,1.63
2022-08-30T19:58:38.212Z,1.00
2022-08-30T20:01:33.076Z,1.83
2022-08-30T20:04:20.886Z,1.40
2022-08-30T20:07:08.795Z,1.97
2022-08-30T20:09:56.489Z,1.70
2022-08-30T20:12:45.114Z,2.33
2022-08-30T20:15:32.853Z,1.40
2022-08-30T20:18:20.491Z,2.17
2022-08-30T20:21:13.558Z,2.37
2022-08-30T20:24:00.988Z,2.47
2022-08-30T20:26:48.063Z,2.40
2022-08-30T20:29:35.245Z,3.57
2022-08-30T20:32:23.171Z,2.43
2022-08-30T20:35:10.646Z,2.50
2022-08-30T20:37:57.764Z,5.50
2022-08-30T20:40:46.705Z,2.87
2022-08-30T20:43:33.701Z,1.50
2022-08-30T20:46:21.342Z,3.67
2022-08-30T20:49:08.422Z,2.83
2022-08-30T20:51:55.393Z,2.43
2022-08-30T20:54:43.459Z,4.00
2022-08-30T20:57:30.902Z,3.10
2022-08-30T21:00:18.163Z,1.57
2022-08-30T21:03:25.507Z,3.00
2022-08-30T21:06:16.596Z,2.13
2022-08-30T21:09:08.857Z,3.47
2022-08-30T21:11:55.850Z,4.40
2022-08-30T21:14:42.902Z,2.70
2022-08-30T21:17:30.326Z,2.90
2022-08-30T21:20:17.857Z,3.10
2022-08-30T21:23:04.968Z,1.90
2022-08-30T21:25:52.146Z,1.73
2022-08-30T21:28:40.350Z,3.53
2022-08-30T21:31:29.210Z,2.73
2022-08-30T21:34:16.828Z,3.13
2022-08-30T21:37:05.186Z,1.80
2022-08-30T21:39:52.294Z,1.90
2022-08-30T21:42:40.184Z,3.17
2022-08-30T21:45:27.286Z,2.23
2022-08-30T21:48:14.411Z,2.53
2022-08-30T21:51:09.805Z,3.33
2022-08-30T21:53:57.785Z,2.77
2022-08-30T21:56:46.995Z,4.10
2022-08-30T21:59:34.698Z,2.73
2022-08-30T22:02:22.911Z,3.13
2022-08-30T22:05:09.957Z,4.33
2022-08-30T22:08:00.970Z,1.77
2022-08-30T22:10:48.194Z,1.83
2022-08-30T22:13:36.933Z,2.23
2022-08-30T22:16:28.000Z,1.87
2022-08-30T22:19:17.740Z,1.60
2022-08-30T22:22:07.056Z,3.40
2022-08-30T22:24:54.257Z,2.10
2022-08-30T22:27:41.250Z,2.37
2022-08-30T22:30:28.193Z,1.20
2022-08-30T22:33:17.778Z,3.23
2022-08-30T22:36:10.729Z,1.80
2022-08-30T22:38:59.787Z,3.00
2022-08-30T22:41:47.452Z,3.50
2022-08-30T22:44:34.578Z,4.90
2022-08-30T22:47:21.536Z,4.10
2022-08-30T22:50:08.637Z,3.77
2022-08-30T22:52:55.699Z,2.73
2022-08-30T22:55:42.784Z,2.30
2022-08-30T22:58:30.021Z,2.00
2022-08-30T23:01:26.949Z,4.00
2022-08-30T23:04:14.102Z,1.93
2022-08-30T23:07:01.192Z,2.33
2022-08-30T23:09:48.226Z,2.47
2022-08-30T23:12:38.834Z,1.53
2022-08-30T23:15:27.546Z,1.60
2022-08-30T23:18:14.531Z,1.67
2022-08-30T23:21:10.975Z,1.00
2022-08-30T23:24:17.612Z,3.43
2022-08-30T23:27:23.035Z,1.20
2022-08-30T23:30:29.173Z,1.87
2022-08-30T23:33:35.166Z,1.80
2022-08-30T23:36:40.994Z,1.63
2022-08-30T23:39:47.216Z,1.80
2022-08-30T23:42:52.742Z,2.27
2022-08-30T23:45:58.571Z,2.43
2022-08-30T23:49:04.726Z,2.23
2022-08-30T23:52:10.103Z,1.20
2022-08-30T23:55:15.783Z,1.40
2022-08-30T23:58:21.417Z,2.53
